createdAt,value
2022-09-06T00:01:26.721Z,100680.59
2022-09-06T00:03:57.119Z,100677.36
2022-09-06T00:06:27.289Z,100677.36
2022-09-06T00:08:57.546Z,100674.58
2022-09-06T00:11:28.165Z,100672.03
2022-09-06T00:13:58.489Z,100668.59
2022-09-06T00:16:30.601Z,100668.59
2022-09-06T00:19:01.060Z,100668.67
2022-09-06T00:21:32.312Z,100663.11
2022-09-06T00:24:02.928Z,100659.80
2022-09-06T00:26:33.526Z,100662.84
2022-09-06T00:29:03.689Z,100657.33
2022-09-06T00:31:34.429Z,100659.64
2022-09-06T00:34:04.833Z,100659.64
2022-09-06T00:36:35.876Z,100668.17
2022-09-06T00:39:06.162Z,100664.53
2022-09-06T00:41:36.595Z,100667.84
2022-09-06T00:44:07.187Z,100664.80
2022-09-06T00:46:59.690Z,100657.72
2022-09-06T00:49:32.852Z,100658.05
2022-09-06T00:52:06.359Z,100665.06
2022-09-06T00:54:37.353Z,100665.06
2022-09-06T00:57:08.295Z,100651.40
2022-09-06T00:59:41.634Z,100651.40
2022-09-06T01:02:12.423Z,100657.98
2022-09-06T01:04:45.403Z,100661.77
2022-09-06T01:07:27.798Z,100664.55
2022-09-06T01:10:24.774Z,100657.84
2022-09-06T01:13:22.195Z,100657.84
2022-09-06T01:16:10.476Z,100664.67
2022-09-06T01:19:01.722Z,100664.67
2022-09-06T01:21:43.807Z,100671.43
2022-09-06T01:24:35.062Z,100665.02
2022-09-06T01:27:28.695Z,100675.09
2022-09-06T01:30:10.558Z,100675.09
2022-09-06T01:35:53.927Z,100666.31
2022-09-06T01:38:24.363Z,100678.17
2022-09-06T01:40:55.214Z,100668.19
2022-09-06T01:46:17.567Z,100663.08
2022-09-06T01:48:56.369Z,100668.85
2022-09-06T01:51:50.678Z,100670.83
2022-09-06T01:58:07.543Z,100678.42
2022-09-06T02:00:46.801Z,100680.52
2022-09-06T02:03:25.593Z,100680.52
2022-09-06T02:05:58.877Z,100672.41
2022-09-06T02:08:35.261Z,100682.91
2022-09-06T02:11:08.393Z,100675.34
2022-09-06T02:13:59.750Z,100676.10
2022-09-06T02:16:32.133Z,100666.38
2022-09-06T02:19:10.888Z,100672.23
2022-09-06T02:21:44.413Z,100680.13
2022-09-06T02:24:17.975Z,100674.00
2022-09-06T02:26:49.413Z,100669.72
2022-09-06T02:29:20.101Z,100671.91
2022-09-06T02:31:53.250Z,100671.91
2022-09-06T02:34:24.368Z,100669.02
2022-09-06T02:36:56.294Z,100676.10
2022-09-06T02:39:26.818Z,100676.10
2022-09-06T02:41:58.036Z,100674.58
2022-09-06T02:44:28.236Z,100677.06
2022-09-06T02:46:58.397Z,100678.88
2022-09-06T02:49:28.545Z,100686.08
2022-09-06T02:51:59.092Z,100688.72
2022-09-06T02:54:29.278Z,100691.10
2022-09-06T02:56:59.412Z,100699.48
2022-09-06T02:59:29.789Z,100707.81
2022-09-06T03:02:00.310Z,100707.81
2022-09-06T03:04:30.564Z,100704.05
2022-09-06T03:07:01.647Z,100704.05
2022-09-06T03:09:32.033Z,100705.80
2022-09-06T03:12:02.535Z,100705.66
2022-09-06T03:14:33.320Z,100704.91
2022-09-06T03:17:04.621Z,100703.20
2022-09-06T03:19:35.761Z,100703.20
2022-09-06T03:22:06.372Z,100706.59
2022-09-06T03:24:36.607Z,100711.34
2022-09-06T03:27:07.028Z,100715.95
2022-09-06T03:29:40.005Z,100712.41
2022-09-06T03:32:10.448Z,100716.90
2022-09-06T03:34:40.866Z,100711.19
2022-09-06T03:37:11.515Z,100719.42
2022-09-06T03:39:42.215Z,100719.42
2022-09-06T03:42:12.805Z,100721.58
2022-09-06T03:44:44.409Z,100732.18
2022-09-06T03:47:18.859Z,100727.33
2022-09-06T03:49:47.923Z,100731.17
2022-09-06T03:52:18.608Z,100740.60
2022-09-06T03:54:48.957Z,100734.83
2022-09-06T03:57:19.204Z,100729.31
2022-09-06T03:59:49.355Z,100731.98
2022-09-06T04:02:21.193Z,100732.64
2022-09-06T04:04:52.046Z,100731.00
2022-09-06T04:07:23.195Z,100734.80
2022-09-06T04:09:54.015Z,100738.06
2022-09-06T04:12:24.390Z,100745.09
2022-09-06T04:14:55.371Z,100747.03
2022-09-06T04:17:27.768Z,100753.36
2022-09-06T04:19:58.632Z,100754.99
2022-09-06T04:22:28.886Z,100752.25
2022-09-06T04:25:00.179Z,100762.28
2022-09-06T04:27:30.829Z,100753.88
2022-09-06T04:30:01.244Z,100754.58
2022-09-06T04:32:32.070Z,100762.03
2022-09-06T04:35:02.387Z,100757.89
2022-09-06T04:37:32.907Z,100754.79
2022-09-06T04:40:03.994Z,100760.23
2022-09-06T04:42:34.588Z,100760.23
2022-09-06T04:45:05.298Z,100758.66
2022-09-06T04:47:35.993Z,100760.86
2022-09-06T04:50:06.673Z,100759.86
2022-09-06T04:52:37.508Z,100765.44
2022-09-06T04:55:08.160Z,100758.78
2022-09-06T04:57:42.521Z,100758.84
2022-09-06T05:00:11.391Z,100758.84
2022-09-06T05:02:41.807Z,100750.72
2022-09-06T05:05:12.256Z,100756.03
2022-09-06T05:07:42.623Z,100756.03
2022-09-06T05:10:14.522Z,100762.91
2022-09-06T05:12:50.814Z,100761.84
2022-09-06T05:15:41.992Z,100764.44
2022-09-06T05:18:16.042Z,100764.44
2022-09-06T05:20:46.519Z,100766.09
2022-09-06T05:23:16.805Z,100774.02
2022-09-06T05:25:47.080Z,100769.57
2022-09-06T05:28:18.366Z,100769.57
2022-09-06T05:30:48.829Z,100768.87
2022-09-06T05:33:42.356Z,100776.55
2022-09-06T05:36:12.492Z,100776.55
2022-09-06T05:38:43.660Z,100780.73
2022-09-06T05:41:13.940Z,100780.73
2022-09-06T05:43:46.182Z,100785.30
2022-09-06T05:46:17.756Z,100785.30
2022-09-06T05:48:54.080Z,100780.59
2022-09-06T05:51:24.756Z,100780.59
2022-09-06T05:53:55.040Z,100786.13
2022-09-06T05:56:25.658Z,100790.14
2022-09-06T05:58:58.147Z,100781.89
2022-09-06T06:01:30.720Z,100781.89
2022-09-06T06:04:03.265Z,100794.29
2022-09-06T06:06:35.203Z,100798.00
2022-09-06T06:09:06.471Z,100798.00
2022-09-06T06:11:37.115Z,100800.65
2022-09-06T06:14:08.534Z,100800.65
2022-09-06T06:16:39.050Z,100796.55
2022-09-06T06:19:09.909Z,100798.47
2022-09-06T06:21:40.344Z,100808.02
2022-09-06T06:24:10.665Z,100817.38
2022-09-06T06:26:41.622Z,100805.58
2022-09-06T06:29:12.185Z,100816.32
2022-09-06T06:31:42.812Z,100819.61
2022-09-06T06:34:13.031Z,100819.39
2022-09-06T06:36:43.256Z,100819.39
2022-09-06T06:39:13.976Z,100820.80
2022-09-06T06:41:44.321Z,100820.80
2022-09-06T06:44:15.409Z,100824.27
2022-09-06T06:46:45.865Z,100823.82
2022-09-06T06:49:16.281Z,100823.82
2022-09-06T06:51:46.637Z,100829.95
2022-09-06T06:54:16.921Z,100831.38
2022-09-06T06:56:47.340Z,100831.38
2022-09-06T06:59:17.986Z,100832.81
2022-09-06T07:01:48.483Z,100837.96
2022-09-06T07:04:18.927Z,100837.96
2022-09-06T07:09:26.077Z,100834.14
2022-09-06T07:11:56.530Z,100834.14
2022-09-06T07:14:28.097Z,100837.71
2022-09-06T07:16:58.735Z,100838.77
2022-09-06T07:22:04.516Z,100842.77
2022-09-06T07:24:33.198Z,100846.34
2022-09-06T07:29:35.730Z,100840.63
2022-09-06T07:32:13.236Z,100842.21
2022-09-06T07:34:37.942Z,100851.41
2022-09-06T07:37:08.457Z,100843.63
2022-09-06T07:39:39.088Z,100843.63
2022-09-06T07:42:10.302Z,100847.09
2022-09-06T07:44:40.584Z,100847.09
2022-09-06T07:54:48.484Z,100837.75
2022-09-06T07:57:18.703Z,100832.87
2022-09-06T07:59:49.851Z,100832.87
2022-09-06T08:02:20.570Z,100832.22
2022-09-06T08:04:51.801Z,100828.57
2022-09-06T08:09:54.002Z,100834.70
2022-09-06T08:12:24.343Z,100821.03
2022-09-06T08:14:55.127Z,100822.07
2022-09-06T08:17:25.354Z,100814.38
2022-09-06T08:19:56.113Z,100819.61
2022-09-06T08:22:26.378Z,100819.61
2022-09-06T08:24:56.672Z,100814.63
2022-09-06T08:27:27.041Z,100814.63
2022-09-06T08:29:57.229Z,100819.66
2022-09-06T08:32:27.501Z,100819.66
2022-09-06T08:34:58.237Z,100812.14
2022-09-06T08:37:28.591Z,100816.85
2022-09-06T08:39:59.204Z,100816.85
2022-09-06T08:42:30.543Z,100816.13
2022-09-06T08:45:02.315Z,100806.47
2022-09-06T08:47:32.981Z,100806.47
2022-09-06T08:50:05.996Z,100785.00
2022-09-06T08:53:16.722Z,100785.00
2022-09-06T08:55:47.264Z,100790.94
2022-09-06T08:58:23.194Z,100787.81
2022-09-06T09:00:56.539Z,100795.14
2022-09-06T09:03:38.364Z,100795.14
2022-09-06T09:06:09.909Z,100780.27
2022-09-06T09:09:01.124Z,100778.84
2022-09-06T09:11:32.058Z,100778.84
2022-09-06T09:14:23.199Z,100780.05
2022-09-06T09:16:56.545Z,100782.31
2022-09-06T09:19:27.101Z,100782.31
2022-09-06T09:21:57.530Z,100790.17
2022-09-06T09:24:28.040Z,100779.64
2022-09-06T09:27:09.884Z,100788.53
2022-09-06T09:32:38.483Z,100780.70
2022-09-06T09:35:35.915Z,100780.23
2022-09-06T09:38:15.650Z,100781.86
2022-09-06T09:40:54.956Z,100790.71
2022-09-06T09:43:33.663Z,100790.71
2022-09-06T09:46:12.915Z,100785.73
2022-09-06T09:48:49.436Z,100785.73
2022-09-06T09:51:27.366Z,100794.45
2022-09-06T09:53:59.061Z,100788.30
2022-09-06T09:56:43.911Z,100790.19
2022-09-06T09:59:25.811Z,100797.50
2022-09-06T10:02:04.592Z,100797.50
2022-09-06T10:07:18.057Z,100783.80
2022-09-06T10:10:06.599Z,100783.80
2022-09-06T10:12:39.800Z,100777.22
2022-09-06T10:15:12.741Z,100782.48
2022-09-06T10:17:50.881Z,100783.38
2022-09-06T10:20:24.510Z,100782.95
2022-09-06T10:23:05.657Z,100782.95
2022-09-06T10:25:49.001Z,100792.33
2022-09-06T10:28:38.815Z,100792.33
2022-09-06T10:31:26.914Z,100778.19
2022-09-06T10:34:12.084Z,100778.05
2022-09-06T10:36:45.674Z,100776.70
2022-09-06T10:39:18.899Z,100767.91
2022-09-06T10:42:04.968Z,100767.91
2022-09-06T10:44:38.340Z,100776.78
2022-09-06T10:47:35.940Z,100761.98
2022-09-06T10:50:07.321Z,100761.98
2022-09-06T10:52:40.586Z,100764.72
2022-09-06T10:55:13.827Z,100773.67
2022-09-06T11:00:19.826Z,100760.84
2022-09-06T11:08:47.189Z,100753.34
2022-09-06T11:11:07.682Z,100757.38
2022-09-06T11:13:39.279Z,100758.76
2022-09-06T11:16:27.971Z,100758.76
2022-09-06T11:19:12.950Z,100761.12
2022-09-06T11:21:58.114Z,100761.12
2022-09-06T11:24:37.027Z,100740.72
2022-09-06T11:27:32.895Z,100740.72
2022-09-06T11:30:05.092Z,100745.28
2022-09-06T11:32:48.834Z,100745.28
2022-09-06T11:35:31.125Z,100744.57
2022-09-06T11:38:19.586Z,100753.80
2022-09-06T11:41:06.337Z,100753.80
2022-09-06T11:43:47.471Z,100741.26
2022-09-06T11:46:35.682Z,100737.28
2022-09-06T11:49:08.428Z,100737.28
2022-09-06T11:51:45.101Z,100732.02
2022-09-06T11:54:26.547Z,100728.76
2022-09-06T11:57:14.902Z,100727.81
2022-09-06T11:59:51.376Z,100727.81
2022-09-06T12:02:37.023Z,100725.18
2022-09-06T12:05:09.877Z,100722.14
2022-09-06T12:08:13.148Z,100715.44
2022-09-06T12:10:58.712Z,100712.95
2022-09-06T12:13:44.711Z,100712.95
2022-09-06T12:16:17.830Z,100719.19
2022-09-06T12:18:51.420Z,100719.73
2022-09-06T12:21:42.718Z,100719.73
2022-09-06T12:24:36.129Z,100719.23
2022-09-06T12:27:18.517Z,100719.23
2022-09-06T12:29:51.561Z,100724.16
2022-09-06T12:32:27.919Z,100723.77
2022-09-06T12:37:37.842Z,100719.30
2022-09-06T12:40:09.475Z,100719.30
2022-09-06T12:42:40.839Z,100731.22
2022-09-06T12:45:11.994Z,100731.22
2022-09-06T12:47:42.780Z,100731.11
2022-09-06T12:50:22.311Z,100731.11
2022-09-06T12:52:55.302Z,100717.83
2022-09-06T12:55:34.734Z,100726.53
2022-09-06T12:58:11.208Z,100721.14
2022-09-06T13:00:49.821Z,100723.80
2022-09-06T13:03:41.086Z,100725.01
2022-09-06T13:06:14.365Z,100725.01
2022-09-06T13:08:50.965Z,100717.17
2022-09-06T13:11:35.061Z,100717.17
2022-09-06T13:14:14.797Z,100722.38
2022-09-06T13:16:47.655Z,100719.13
2022-09-06T13:19:20.823Z,100720.38
2022-09-06T13:21:52.878Z,100724.19
2022-09-06T13:24:38.039Z,100724.19
2022-09-06T13:27:25.948Z,100712.66
2022-09-06T13:29:58.562Z,100713.78
2022-09-06T13:32:31.026Z,100723.55
2022-09-06T13:35:02.623Z,100722.61
2022-09-06T13:37:34.489Z,100712.38
2022-09-06T13:40:24.366Z,100712.38
2022-09-06T13:42:57.608Z,100719.73
2022-09-06T13:45:29.974Z,100732.09
2022-09-06T13:48:19.347Z,100727.45
2022-09-06T13:50:34.339Z,100723.09
2022-09-06T13:53:04.666Z,100715.14
2022-09-06T13:55:35.642Z,100710.87
2022-09-06T13:58:05.960Z,100710.87
2022-09-06T14:00:36.975Z,100710.32
2022-09-06T14:03:11.269Z,100707.32
2022-09-06T14:05:42.858Z,100713.45
2022-09-06T14:08:13.260Z,100706.04
2022-09-06T14:10:45.029Z,100719.04
2022-09-06T14:13:17.304Z,100707.23
2022-09-06T14:15:50.241Z,100701.58
2022-09-06T14:18:20.748Z,100701.58
2022-09-06T14:20:55.960Z,100704.53
2022-09-06T14:23:26.969Z,100713.42
2022-09-06T14:26:01.898Z,100712.06
2022-09-06T14:28:34.267Z,100711.29
2022-09-06T14:31:17.037Z,100716.61
2022-09-06T14:33:47.872Z,100716.96
2022-09-06T14:36:21.511Z,100716.96
2022-09-06T14:38:53.209Z,100714.08
2022-09-06T14:41:23.707Z,100715.49
2022-09-06T14:43:56.283Z,100718.30
2022-09-06T14:46:29.025Z,100710.05
2022-09-06T14:49:09.815Z,100711.16
2022-09-06T14:51:40.448Z,100706.89
2022-09-06T14:54:12.958Z,100707.61
2022-09-06T14:56:44.354Z,100701.43
2022-09-06T14:59:15.020Z,100703.09
2022-09-06T15:01:46.650Z,100697.10
2022-09-06T15:04:17.108Z,100697.10
2022-09-06T15:06:47.994Z,100702.61
2022-09-06T15:09:20.217Z,100702.61
2022-09-06T15:11:52.231Z,100701.08
2022-09-06T15:14:25.557Z,100699.88
2022-09-06T15:16:58.496Z,100697.61
2022-09-06T15:19:30.561Z,100697.61
2022-09-06T15:22:01.434Z,100695.02
2022-09-06T15:24:33.211Z,100695.22
2022-09-06T15:27:03.591Z,100690.97
2022-09-06T15:29:34.120Z,100701.86
2022-09-06T15:32:04.689Z,100701.86
2022-09-06T15:34:35.518Z,100695.94
2022-09-06T15:37:06.009Z,100696.38
2022-09-06T15:39:36.501Z,100689.75
2022-09-06T15:42:07.227Z,100697.14
2022-09-06T15:44:38.302Z,100690.83
2022-09-06T15:47:08.867Z,100690.83
2022-09-06T15:49:39.804Z,100695.55
2022-09-06T15:52:10.187Z,100693.06
2022-09-06T15:54:40.587Z,100688.41
2022-09-06T15:57:11.463Z,100694.61
2022-09-06T15:59:42.320Z,100694.61
2022-09-06T16:02:14.559Z,100695.33
2022-09-06T16:04:46.500Z,100708.05
2022-09-06T16:07:17.671Z,100702.44
2022-09-06T16:09:48.181Z,100702.44
2022-09-06T16:12:19.261Z,100704.16
2022-09-06T16:14:52.746Z,100704.94
2022-09-06T16:17:22.861Z,100706.09
2022-09-06T16:19:53.416Z,100724.03
2022-09-06T16:22:27.214Z,100721.02
2022-09-06T16:24:57.472Z,100721.02
2022-09-06T16:27:27.914Z,100724.36
2022-09-06T16:29:58.559Z,100724.22
2022-09-06T16:32:29.006Z,100731.67
2022-09-06T16:35:00.505Z,100740.05
2022-09-06T16:37:32.830Z,100740.05
2022-09-06T16:40:03.142Z,100728.81
2022-09-06T16:42:33.827Z,100734.95
2022-09-06T16:45:04.462Z,100749.20
2022-09-06T16:47:36.750Z,100749.20
2022-09-06T16:50:07.824Z,100755.91
2022-09-06T16:52:41.207Z,100754.09
2022-09-06T16:55:11.636Z,100754.09
2022-09-06T16:57:42.042Z,100745.42
2022-09-06T17:00:13.178Z,100745.42
2022-09-06T17:02:47.091Z,100756.66
2022-09-06T17:05:16.501Z,100767.42
2022-09-06T17:07:48.486Z,100767.42
2022-09-06T17:10:19.512Z,100770.58
2022-09-06T17:12:50.011Z,100776.09
2022-09-06T17:15:20.865Z,100781.34
2022-09-06T17:17:53.094Z,100781.34
2022-09-06T17:20:23.376Z,100773.56
2022-09-06T17:22:53.861Z,100799.07
2022-09-06T17:25:24.466Z,100785.13
2022-09-06T17:27:54.918Z,100785.67
2022-09-06T17:30:25.399Z,100790.47
2022-09-06T17:32:55.926Z,100801.14
2022-09-06T17:35:26.493Z,100801.14
2022-09-06T17:37:56.955Z,100800.09
2022-09-06T17:40:27.506Z,100800.09
2022-09-06T17:42:58.279Z,100807.72
2022-09-06T17:45:29.126Z,100804.04
2022-09-06T17:47:59.823Z,100808.53
2022-09-06T17:50:33.922Z,100814.34
2022-09-06T17:53:04.365Z,100812.94
2022-09-06T17:55:39.834Z,100816.37
2022-09-06T17:58:10.179Z,100814.81
2022-09-06T18:00:41.557Z,100814.81
2022-09-06T18:03:20.441Z,100821.55
2022-09-06T18:05:50.820Z,100814.32
2022-09-06T18:08:23.871Z,100814.32
2022-09-06T18:10:54.440Z,100822.19
2022-09-06T18:13:33.530Z,100821.84
2022-09-06T18:16:05.248Z,100824.48
2022-09-06T18:18:37.061Z,100826.77
2022-09-06T18:21:07.906Z,100827.17
2022-09-06T18:23:40.606Z,100823.87
2022-09-06T18:26:11.546Z,100828.70
2022-09-06T18:28:46.523Z,100828.70
2022-09-06T18:31:19.373Z,100825.01
2022-09-06T18:33:49.899Z,100825.01
2022-09-06T18:36:20.976Z,100831.17
2022-09-06T18:38:54.041Z,100831.17
2022-09-06T18:41:24.522Z,100822.84
2022-09-06T18:43:56.088Z,100826.13
2022-09-06T18:46:30.491Z,100821.90
2022-09-06T18:49:01.556Z,100821.53
2022-09-06T18:51:42.377Z,100821.53
2022-09-06T18:54:12.893Z,100815.45
2022-09-06T18:56:43.681Z,100815.45
2022-09-06T18:59:14.716Z,100811.19
2022-09-06T19:01:45.283Z,100816.02
2022-09-06T19:04:16.760Z,100811.24
2022-09-06T19:06:48.645Z,100811.24
2022-09-06T19:09:19.567Z,100810.88
2022-09-06T19:11:50.665Z,100814.17
2022-09-06T19:14:23.584Z,100818.42
2022-09-06T19:16:54.121Z,100818.42
2022-09-06T19:19:24.461Z,100820.95
2022-09-06T19:21:54.899Z,100820.95
2022-09-06T19:24:25.342Z,100816.27
2022-09-06T19:26:56.070Z,100809.30
2022-09-06T19:29:26.411Z,100817.03
2022-09-06T19:31:57.364Z,100815.66
2022-09-06T19:34:27.861Z,100813.03
2022-09-06T19:36:58.212Z,100806.30
2022-09-06T19:39:32.253Z,100813.22
2022-09-06T19:42:00.834Z,100818.36
2022-09-06T19:44:31.708Z,100819.69
2022-09-06T19:47:02.197Z,100814.32
2022-09-06T19:49:32.567Z,100814.32
2022-09-06T19:52:03.209Z,100821.48
2022-09-06T19:54:33.893Z,100815.40
2022-09-06T19:57:04.940Z,100815.97
2022-09-06T19:59:35.599Z,100816.22
2022-09-06T20:02:06.546Z,100816.45
2022-09-06T20:04:37.130Z,100813.81
2022-09-06T20:07:07.918Z,100817.84
2022-09-06T20:09:38.634Z,100811.77
2022-09-06T20:12:09.950Z,100821.72
2022-09-06T20:14:40.580Z,100825.27
2022-09-06T20:17:32.290Z,100818.57
2022-09-06T20:19:43.280Z,100818.57
2022-09-06T20:22:14.090Z,100818.67
2022-09-06T20:24:44.493Z,100823.40
2022-09-06T20:27:14.735Z,100823.40
2022-09-06T20:29:45.399Z,100821.82
2022-09-06T20:32:16.050Z,100827.64
2022-09-06T20:34:47.092Z,100827.64
2022-09-06T20:37:17.520Z,100826.58
2022-09-06T20:39:47.843Z,100825.22
2022-09-06T20:42:18.233Z,100823.31
2022-09-06T20:44:48.892Z,100819.30
2022-09-06T20:47:19.504Z,100822.08
2022-09-06T20:49:49.869Z,100817.20
2022-09-06T20:52:20.443Z,100817.20
2022-09-06T20:54:50.877Z,100817.50
2022-09-06T20:57:21.357Z,100817.50
2022-09-06T20:59:51.824Z,100817.89
2022-09-06T21:02:22.254Z,100812.11
2022-09-06T21:04:52.612Z,100812.11
2022-09-06T21:07:22.951Z,100811.81
2022-09-06T21:09:53.367Z,100811.81
2022-09-06T21:12:23.831Z,100812.95
2022-09-06T21:14:55.260Z,100812.95
2022-09-06T21:17:25.960Z,100816.68
2022-09-06T21:19:56.219Z,100815.28
2022-09-06T21:22:26.670Z,100825.54
2022-09-06T21:24:57.282Z,100811.58
2022-09-06T21:27:27.629Z,100814.36
2022-09-06T21:29:58.021Z,100816.36
2022-09-06T21:32:28.349Z,100821.92
2022-09-06T21:34:58.718Z,100815.63
2022-09-06T21:37:29.030Z,100819.38
2022-09-06T21:39:59.495Z,100810.33
2022-09-06T21:42:30.316Z,100816.95
2022-09-06T21:45:00.736Z,100819.21
2022-09-06T21:47:31.074Z,100820.41
2022-09-06T21:50:01.340Z,100817.43
2022-09-06T21:52:31.979Z,100817.43
2022-09-06T21:55:02.883Z,100817.20
2022-09-06T21:57:33.642Z,100817.20
2022-09-06T22:00:05.990Z,100817.01
2022-09-06T22:02:36.886Z,100817.01
2022-09-06T22:05:07.503Z,100820.08
2022-09-06T22:07:38.534Z,100816.38
2022-09-06T22:10:09.067Z,100811.50
2022-09-06T22:12:41.361Z,100813.15
2022-09-06T22:15:11.675Z,100814.54
2022-09-06T22:17:42.308Z,100812.11
2022-09-06T22:20:12.768Z,100812.46
2022-09-06T22:22:43.134Z,100819.05
2022-09-06T22:25:14.237Z,100819.05
2022-09-06T22:27:44.948Z,100821.60
2022-09-06T22:30:15.690Z,100824.17
2022-09-06T22:32:45.943Z,100823.59
2022-09-06T22:35:35.529Z,100823.86
2022-09-06T22:38:05.913Z,100824.61
2022-09-06T22:40:36.354Z,100817.92
2022-09-06T22:43:06.951Z,100818.51
2022-09-06T22:45:37.384Z,100807.23
2022-09-06T22:48:07.811Z,100811.91
2022-09-06T22:50:38.428Z,100813.10
2022-09-06T22:53:09.902Z,100813.80
2022-09-06T22:55:40.571Z,100805.29
2022-09-06T22:58:11.092Z,100805.55
2022-09-06T23:00:41.717Z,100805.55
2022-09-06T23:03:13.296Z,100811.58
2022-09-06T23:05:43.882Z,100811.58
2022-09-06T23:08:15.721Z,100805.83
2022-09-06T23:10:46.316Z,100803.66
2022-09-06T23:13:17.129Z,100797.84
2022-09-06T23:15:47.939Z,100804.86
2022-09-06T23:18:18.387Z,100805.30
2022-09-06T23:20:48.661Z,100805.30
2022-09-06T23:23:19.100Z,100810.22
2022-09-06T23:25:49.577Z,100806.30
2022-09-06T23:28:19.990Z,100804.33
2022-09-06T23:30:51.474Z,100798.97
2022-09-06T23:33:21.884Z,100804.78
2022-09-06T23:35:54.688Z,100804.78
2022-09-06T23:38:25.083Z,100798.86
2022-09-06T23:40:55.499Z,100798.60
2022-09-06T23:43:25.868Z,100799.63
2022-09-06T23:45:56.190Z,100797.77
2022-09-06T23:48:26.572Z,100801.14
2022-09-06T23:50:56.857Z,100803.13
2022-09-06T23:53:27.453Z,100802.95
2022-09-06T23:55:58.158Z,100801.69
2022-09-06T23:58:28.534Z,100795.45
